createdAt,value
2022-09-28T12:35:33.560Z,63.041818
2022-09-28T12:40:33.654Z,63.044000
2022-09-28T12:45:16.796Z,62.960000
2022-09-28T12:50:38.697Z,63.284000
2022-09-28T12:55:21.250Z,63.248000
2022-09-28T13:00:23.746Z,61.700000
2022-09-28T13:05:26.382Z,61.172000
2022-09-28T13:10:29.418Z,61.160000
2022-09-28T13:15:31.961Z,61.640000
2022-09-28T13:20:34.636Z,61.616000
2022-09-28T13:25:17.152Z,61.700000
2022-09-28T13:30:19.359Z,62.024000
2022-09-28T13:35:21.618Z,62.036000
2022-09-28T13:40:24.769Z,61.365714
2022-09-28T13:45:27.057Z,60.980000
2022-09-28T13:50:29.613Z,60.836000
2022-09-28T13:55:32.091Z,61.004000
2022-09-28T14:00:34.443Z,61.640000
2022-09-28T14:05:16.684Z,61.856000
2022-09-28T14:10:19.134Z,61.652000
2022-09-28T14:15:22.023Z,61.448000
2022-09-28T14:20:24.374Z,61.532857
2022-09-28T14:25:28.456Z,61.388000
2022-09-28T14:30:30.020Z,61.160000
2022-09-28T14:35:32.304Z,61.424000
2022-09-28T14:40:35.070Z,61.436000
2022-09-28T14:45:16.756Z,60.464000
2022-09-28T14:50:19.117Z,59.828000
2022-09-28T14:55:21.543Z,59.648000
2022-09-28T15:00:23.750Z,60.324286
2022-09-28T15:05:26.414Z,60.740000
2022-09-28T15:10:28.646Z,62.000000
2022-09-28T15:15:30.697Z,64.940000
2022-09-28T15:20:33.822Z,66.128000
2022-09-28T15:25:16.106Z,67.316000
2022-09-28T15:30:18.547Z,67.892000
2022-09-28T15:35:21.438Z,68.276000
2022-09-28T15:40:24.849Z,68.681429
2022-09-28T15:45:26.245Z,69.668000
2022-09-28T15:50:29.383Z,70.436000
2022-09-28T15:55:33.899Z,70.340000
2022-09-28T16:00:35.382Z,70.400000
2022-09-28T16:05:17.525Z,70.544000
2022-09-28T16:10:21.167Z,72.368000
2022-09-28T16:15:23.140Z,73.387143
2022-09-28T16:20:25.663Z,74.432000
2022-09-28T16:25:27.937Z,75.416000
2022-09-28T16:30:30.270Z,76.772000
2022-09-28T16:35:32.953Z,77.420000
2022-09-28T16:40:35.211Z,77.792000
2022-09-28T16:45:17.790Z,78.272000
2022-09-28T16:50:20.544Z,78.992000
2022-09-28T16:55:39.483Z,78.414286
2022-09-28T17:00:24.792Z,78.848000
2022-09-28T17:05:27.844Z,78.620000
2022-09-28T17:10:30.635Z,78.668000
2022-09-28T17:15:33.135Z,79.448000
2022-09-28T17:20:35.992Z,79.964000
2022-09-28T17:25:18.427Z,79.964000
2022-09-28T17:30:23.751Z,79.388000
2022-09-28T17:35:25.097Z,79.481429
2022-09-28T17:40:25.638Z,80.384000
2022-09-28T17:45:28.133Z,80.420000
2022-09-28T17:50:30.671Z,80.576000
2022-09-28T17:55:33.386Z,80.672000
2022-09-28T18:00:36.025Z,81.464000
2022-09-28T18:05:18.842Z,81.668000
2022-09-28T18:10:21.347Z,81.680000
2022-09-28T18:15:25.319Z,81.924286
2022-09-28T18:20:27.202Z,82.172000
2022-09-28T18:25:29.201Z,82.796000
2022-09-28T18:30:31.341Z,82.100000
2022-09-28T18:35:34.416Z,81.464000
2022-09-28T18:40:16.210Z,80.924000
2022-09-28T18:45:19.136Z,80.744000
2022-09-28T18:50:21.442Z,80.408000
2022-09-28T18:55:24.098Z,80.330000
2022-09-28T19:00:26.061Z,80.216000
2022-09-28T19:05:30.032Z,79.940000
2022-09-28T19:10:31.538Z,79.100000
2022-09-28T19:15:33.835Z,78.476000
2022-09-28T19:20:15.980Z,77.204000
2022-09-28T19:25:18.221Z,77.780000
2022-09-28T19:30:20.679Z,77.108000
2022-09-28T19:35:24.565Z,76.820000
2022-09-28T19:40:25.762Z,77.048000
2022-09-28T19:45:28.150Z,77.540000
2022-09-28T19:50:31.031Z,77.768000
2022-09-28T19:55:33.551Z,77.960000
2022-09-28T20:00:16.734Z,78.500000
2022-09-28T20:05:18.406Z,79.016000
2022-09-28T20:10:20.674Z,79.328000
2022-09-28T20:15:23.020Z,80.124286
2022-09-28T20:20:25.559Z,80.036000
2022-09-28T20:25:28.782Z,80.084000
2022-09-28T20:30:30.611Z,80.804000
2022-09-28T20:35:33.472Z,81.392000
2022-09-28T20:40:35.369Z,81.272000
2022-09-28T20:45:17.338Z,81.596000
2022-09-28T20:50:19.967Z,81.140000
2022-09-28T20:55:23.485Z,81.191429
2022-09-28T21:00:25.024Z,82.004000
2022-09-28T21:05:27.495Z,81.548000
2022-09-28T21:10:29.822Z,82.148000
2022-09-28T21:15:32.081Z,83.252000
2022-09-28T21:20:34.687Z,83.660000
2022-09-28T21:25:18.325Z,83.420000
2022-09-28T21:30:20.150Z,82.448000
2022-09-28T21:35:22.661Z,81.885714
2022-09-28T21:40:24.967Z,81.680000
2022-09-28T21:45:26.965Z,81.632000
2022-09-28T21:50:29.682Z,82.652000
2022-09-28T21:55:31.928Z,82.340000
2022-09-28T22:00:34.460Z,81.524000
2022-09-28T22:05:17.146Z,81.500000
2022-09-28T22:10:18.297Z,81.236000
2022-09-28T22:15:20.687Z,80.792000
2022-09-28T22:20:23.771Z,80.535714
2022-09-28T22:25:26.039Z,80.276000
2022-09-28T22:30:28.531Z,79.952000
2022-09-28T22:35:31.333Z,79.880000
2022-09-28T22:40:33.914Z,79.880000
2022-09-28T22:45:16.376Z,79.760000
2022-09-28T22:50:18.928Z,79.832000
2022-09-28T22:55:21.822Z,80.216000
2022-09-28T23:00:23.890Z,80.394286
2022-09-28T23:05:26.713Z,80.960000
2022-09-28T23:10:28.882Z,81.596000
2022-09-28T23:15:32.425Z,81.800000
2022-09-28T23:20:33.790Z,82.004000
2022-09-28T23:25:16.060Z,81.716000
2022-09-28T23:30:19.408Z,81.596000
2022-09-28T23:35:20.757Z,81.188000
2022-09-28T23:40:23.190Z,80.960000
2022-09-28T23:45:25.871Z,81.008000
2022-09-28T23:50:28.069Z,80.960000
2022-09-28T23:55:30.474Z,81.032000
